Terminal Aerodrome Forecast
Issued by NWS

Home | Current Version | Previous Version | Text Only | Print | Product List | Glossary Off
Versions: 1 2 3 4 5 6 7 8 9 10 11 12 13 14 15

295
FTUS43 KMPX 280724 AAA
TAFAXN
TAF AMD
KAXN 280724Z 2807/2906 29007KT P6SM BKN025
      TEMPO 2808/2810 BKN035
     FM281000 30006KT P6SM SKC
     FM281500 36010KT P6SM SCT250
     FM290100 02005KT P6SM BKN200=

USA.gov is the U.S. government's official web portal to all federal, state and local government web resources and services.